sensor_id;sensor_type;location;lat;lon;timestamp;P1;durP1;ratioP1;P2;durP2;ratioP2
70414;SDS011;57837;52.064;113.478;2022-11-20T00:01:32;36.60;;;16.23;;
70414;SDS011;57837;52.064;113.478;2022-11-20T00:04:36;5.43;;;4.05;;
70414;SDS011;57837;52.064;113.478;2022-11-20T00:07:40;7.57;;;4.10;;
70414;SDS011;57837;52.064;113.478;2022-11-20T00:10:43;23.42;;;10.70;;
70414;SDS011;57837;52.064;113.478;2022-11-20T00:13:48;17.65;;;7.40;;
70414;SDS011;57837;52.064;113.478;2022-11-20T00:16:54;10.50;;;5.45;;
70414;SDS011;57837;52.064;113.478;2022-11-20T00:19:57;20.65;;;7.07;;
70414;SDS011;57837;52.064;113.478;2022-11-20T00:23:01;10.65;;;5.00;;
70414;SDS011;57837;52.064;113.478;2022-11-20T00:26:08;8.27;;;5.22;;
70414;SDS011;57837;52.064;113.478;2022-11-20T00:29:14;18.37;;;6.63;;
70414;SDS011;57837;52.064;113.478;2022-11-20T00:32:18;4.03;;;2.35;;
70414;SDS011;57837;52.064;113.478;2022-11-20T00:35:22;7.97;;;3.28;;
70414;SDS011;57837;52.064;113.478;2022-11-20T00:38:26;12.47;;;5.60;;
70414;SDS011;57837;52.064;113.478;2022-11-20T00:41:30;30.55;;;11.10;;
70414;SDS011;57837;52.064;113.478;2022-11-20T00:44:34;20.13;;;7.20;;
70414;SDS011;57837;52.064;113.478;2022-11-20T00:47:38;12.13;;;6.22;;
70414;SDS011;57837;52.064;113.478;2022-11-20T00:50:41;142.40;;;55.05;;
70414;SDS011;57837;52.064;113.478;2022-11-20T00:53:46;166.65;;;62.03;;
70414;SDS011;57837;52.064;113.478;2022-11-20T00:56:49;154.75;;;52.72;;
70414;SDS011;57837;52.064;113.478;2022-11-20T00:59:56;49.80;;;26.17;;
70414;SDS011;57837;52.064;113.478;2022-11-20T01:02:59;76.45;;;34.50;;
70414;SDS011;57837;52.064;113.478;2022-11-20T01:06:05;52.67;;;26.45;;
70414;SDS011;57837;52.064;113.478;2022-11-20T01:09:11;77.73;;;37.07;;
70414;SDS011;57837;52.064;113.478;2022-11-20T01:12:17;154.40;;;64.93;;
70414;SDS011;57837;52.064;113.478;2022-11-20T01:15:20;176.00;;;71.18;;
70414;SDS011;57837;52.064;113.478;2022-11-20T01:18:24;139.30;;;53.03;;
70414;SDS011;57837;52.064;113.478;2022-11-20T01:21:29;62.85;;;26.30;;
70414;SDS011;57837;52.064;113.478;2022-11-20T01:24:35;100.05;;;40.03;;
70414;SDS011;57837;52.064;113.478;2022-11-20T01:27:38;76.43;;;36.63;;
70414;SDS011;57837;52.064;113.478;2022-11-20T01:30:42;92.33;;;39.57;;
70414;SDS011;57837;52.064;113.478;2022-11-20T01:33:47;95.45;;;43.78;;
70414;SDS011;57837;52.064;113.478;2022-11-20T01:36:52;162.90;;;63.88;;
70414;SDS011;57837;52.064;113.478;2022-11-20T01:39:56;122.80;;;55.17;;
70414;SDS011;57837;52.064;113.478;2022-11-20T01:43:06;132.05;;;48.47;;
70414;SDS011;57837;52.064;113.478;2022-11-20T01:46:26;81.18;;;34.03;;
70414;SDS011;57837;52.064;113.478;2022-11-20T01:49:48;82.85;;;32.53;;
70414;SDS011;57837;52.064;113.478;2022-11-20T01:53:01;40.28;;;20.30;;
70414;SDS011;57837;52.064;113.478;2022-11-20T01:56:09;106.50;;;43.78;;
70414;SDS011;57837;52.064;113.478;2022-11-20T01:59:16;96.65;;;34.78;;
70414;SDS011;57837;52.064;113.478;2022-11-20T02:02:22;91.77;;;33.50;;
70414;SDS011;57837;52.064;113.478;2022-11-20T02:05:28;86.97;;;31.63;;
70414;SDS011;57837;52.064;113.478;2022-11-20T02:08:41;98.90;;;38.55;;
70414;SDS011;57837;52.064;113.478;2022-11-20T02:11:44;61.40;;;26.37;;
70414;SDS011;57837;52.064;113.478;2022-11-20T02:14:48;115.90;;;41.72;;
70414;SDS011;57837;52.064;113.478;2022-11-20T02:17:52;130.95;;;51.03;;
70414;SDS011;57837;52.064;113.478;2022-11-20T02:20:59;182.05;;;71.15;;
70414;SDS011;57837;52.064;113.478;2022-11-20T02:24:19;88.13;;;38.50;;
70414;SDS011;57837;52.064;113.478;2022-11-20T02:27:25;128.75;;;52.38;;
70414;SDS011;57837;52.064;113.478;2022-11-20T02:30:29;128.65;;;51.28;;
70414;SDS011;57837;52.064;113.478;2022-11-20T02:33:33;108.17;;;45.20;;
70414;SDS011;57837;52.064;113.478;2022-11-20T02:36:36;48.40;;;15.82;;
70414;SDS011;57837;52.064;113.478;2022-11-20T02:39:43;107.68;;;41.72;;
70414;SDS011;57837;52.064;113.478;2022-11-20T02:42:52;79.30;;;31.53;;
70414;SDS011;57837;52.064;113.478;2022-11-20T02:45:57;48.20;;;17.95;;
70414;SDS011;57837;52.064;113.478;2022-11-20T02:49:02;52.90;;;21.70;;
70414;SDS011;57837;52.064;113.478;2022-11-20T02:52:06;65.18;;;23.00;;
70414;SDS011;57837;52.064;113.478;2022-11-20T02:55:10;44.65;;;18.67;;
70414;SDS011;57837;52.064;113.478;2022-11-20T02:58:13;31.08;;;13.57;;
70414;SDS011;57837;52.064;113.478;2022-11-20T03:01:17;50.25;;;18.42;;
70414;SDS011;57837;52.064;113.478;2022-11-20T03:04:21;68.17;;;25.70;;
70414;SDS011;57837;52.064;113.478;2022-11-20T03:07:25;69.25;;;26.15;;
70414;SDS011;57837;52.064;113.478;2022-11-20T03:10:29;75.43;;;28.85;;
70414;SDS011;57837;52.064;113.478;2022-11-20T03:13:33;55.57;;;21.73;;
70414;SDS011;57837;52.064;113.478;2022-11-20T03:16:37;49.97;;;18.80;;
70414;SDS011;57837;52.064;113.478;2022-11-20T03:19:40;54.45;;;20.98;;
70414;SDS011;57837;52.064;113.478;2022-11-20T03:22:44;36.30;;;13.55;;
70414;SDS011;57837;52.064;113.478;2022-11-20T03:25:48;34.83;;;12.18;;
70414;SDS011;57837;52.064;113.478;2022-11-20T03:28:52;41.17;;;16.40;;
70414;SDS011;57837;52.064;113.478;2022-11-20T03:32:00;49.55;;;18.77;;
70414;SDS011;57837;52.064;113.478;2022-11-20T03:35:04;43.27;;;19.10;;
70414;SDS011;57837;52.064;113.478;2022-11-20T03:38:07;35.70;;;13.40;;
70414;SDS011;57837;52.064;113.478;2022-11-20T03:41:45;36.63;;;13.82;;
70414;SDS011;57837;52.064;113.478;2022-11-20T03:44:42;25.43;;;9.77;;
70414;SDS011;57837;52.064;113.478;2022-11-20T03:47:46;29.77;;;10.05;;
70414;SDS011;57837;52.064;113.478;2022-11-20T03:50:51;23.27;;;10.65;;
70414;SDS011;57837;52.064;113.478;2022-11-20T03:53:55;36.22;;;14.82;;
70414;SDS011;57837;52.064;113.478;2022-11-20T03:57:00;40.95;;;17.35;;
70414;SDS011;57837;52.064;113.478;2022-11-20T04:00:05;37.90;;;14.75;;
70414;SDS011;57837;52.064;113.478;2022-11-20T04:03:09;38.33;;;16.38;;
70414;SDS011;57837;52.064;113.478;2022-11-20T04:06:16;40.27;;;13.93;;
70414;SDS011;57837;52.064;113.478;2022-11-20T04:09:24;46.13;;;17.75;;
70414;SDS011;57837;52.064;113.478;2022-11-20T04:12:27;40.17;;;16.58;;
70414;SDS011;57837;52.064;113.478;2022-11-20T04:15:35;43.90;;;15.67;;
70414;SDS011;57837;52.064;113.478;2022-11-20T04:18:39;51.60;;;18.65;;
70414;SDS011;57837;52.064;113.478;2022-11-20T04:21:43;52.22;;;19.30;;
70414;SDS011;57837;52.064;113.478;2022-11-20T04:24:46;39.30;;;16.25;;
70414;SDS011;57837;52.064;113.478;2022-11-20T04:27:50;49.22;;;17.15;;
70414;SDS011;57837;52.064;113.478;2022-11-20T04:30:53;47.70;;;17.80;;
70414;SDS011;57837;52.064;113.478;2022-11-20T04:34:03;37.40;;;14.93;;
70414;SDS011;57837;52.064;113.478;2022-11-20T04:37:08;44.33;;;17.70;;
70414;SDS011;57837;52.064;113.478;2022-11-20T04:40:11;54.13;;;16.85;;
70414;SDS011;57837;52.064;113.478;2022-11-20T04:43:14;48.55;;;18.23;;
70414;SDS011;57837;52.064;113.478;2022-11-20T04:46:19;52.10;;;19.90;;
70414;SDS011;57837;52.064;113.478;2022-11-20T04:49:23;25.60;;;9.63;;
70414;SDS011;57837;52.064;113.478;2022-11-20T04:52:26;53.20;;;16.75;;
70414;SDS011;57837;52.064;113.478;2022-11-20T04:55:30;38.83;;;13.82;;
70414;SDS011;57837;52.064;113.478;2022-11-20T04:58:33;32.33;;;12.82;;
70414;SDS011;57837;52.064;113.478;2022-11-20T05:01:37;26.10;;;11.18;;
70414;SDS011;57837;52.064;113.478;2022-11-20T05:04:40;36.10;;;12.05;;
70414;SDS011;57837;52.064;113.478;2022-11-20T05:07:43;31.60;;;11.37;;
70414;SDS011;57837;52.064;113.478;2022-11-20T05:10:47;30.42;;;9.50;;
70414;SDS011;57837;52.064;113.478;2022-11-20T05:13:50;27.90;;;9.68;;
70414;SDS011;57837;52.064;113.478;2022-11-20T05:16:54;24.73;;;9.83;;
70414;SDS011;57837;52.064;113.478;2022-11-20T05:19:58;28.55;;;9.30;;
70414;SDS011;57837;52.064;113.478;2022-11-20T05:23:01;31.70;;;12.20;;
70414;SDS011;57837;52.064;113.478;2022-11-20T05:26:05;25.10;;;9.18;;
70414;SDS011;57837;52.064;113.478;2022-11-20T05:29:10;21.33;;;9.50;;
70414;SDS011;57837;52.064;113.478;2022-11-20T05:32:14;29.35;;;10.65;;
70414;SDS011;57837;52.064;113.478;2022-11-20T05:35:18;34.88;;;9.70;;
70414;SDS011;57837;52.064;113.478;2022-11-20T05:38:21;20.13;;;8.10;;
70414;SDS011;57837;52.064;113.478;2022-11-20T05:41:25;24.42;;;8.90;;
70414;SDS011;57837;52.064;113.478;2022-11-20T05:44:28;19.15;;;7.20;;
70414;SDS011;57837;52.064;113.478;2022-11-20T05:47:32;18.43;;;8.50;;
70414;SDS011;57837;52.064;113.478;2022-11-20T05:50:37;22.27;;;8.07;;
70414;SDS011;57837;52.064;113.478;2022-11-20T05:53:40;17.20;;;6.13;;
70414;SDS011;57837;52.064;113.478;2022-11-20T05:56:49;19.65;;;5.82;;
70414;SDS011;57837;52.064;113.478;2022-11-20T05:59:52;12.77;;;5.55;;
70414;SDS011;57837;52.064;113.478;2022-11-20T06:02:56;15.55;;;6.03;;
70414;SDS011;57837;52.064;113.478;2022-11-20T06:06:00;7.55;;;3.60;;
70414;SDS011;57837;52.064;113.478;2022-11-20T06:09:05;16.10;;;6.10;;
70414;SDS011;57837;52.064;113.478;2022-11-20T06:12:08;14.50;;;5.45;;
70414;SDS011;57837;52.064;113.478;2022-11-20T06:15:12;14.02;;;5.60;;
70414;SDS011;57837;52.064;113.478;2022-11-20T06:18:15;12.40;;;5.90;;
70414;SDS011;57837;52.064;113.478;2022-11-20T06:21:20;18.20;;;7.60;;
70414;SDS011;57837;52.064;113.478;2022-11-20T06:24:25;16.95;;;7.53;;
70414;SDS011;57837;52.064;113.478;2022-11-20T06:27:28;15.63;;;5.75;;
70414;SDS011;57837;52.064;113.478;2022-11-20T06:30:32;13.05;;;5.13;;
70414;SDS011;57837;52.064;113.478;2022-11-20T06:33:36;11.38;;;5.07;;
70414;SDS011;57837;52.064;113.478;2022-11-20T06:36:40;10.98;;;4.78;;
70414;SDS011;57837;52.064;113.478;2022-11-20T06:39:43;11.10;;;4.13;;
70414;SDS011;57837;52.064;113.478;2022-11-20T06:42:47;13.75;;;5.90;;
70414;SDS011;57837;52.064;113.478;2022-11-20T06:45:52;12.80;;;5.50;;
70414;SDS011;57837;52.064;113.478;2022-11-20T06:48:56;12.77;;;5.60;;
70414;SDS011;57837;52.064;113.478;2022-11-20T06:52:01;27.35;;;6.57;;
70414;SDS011;57837;52.064;113.478;2022-11-20T06:55:04;18.55;;;7.47;;
70414;SDS011;57837;52.064;113.478;2022-11-20T06:58:09;17.48;;;7.38;;
70414;SDS011;57837;52.064;113.478;2022-11-20T07:01:13;57.08;;;21.80;;
70414;SDS011;57837;52.064;113.478;2022-11-20T07:04:18;51.10;;;17.17;;
70414;SDS011;57837;52.064;113.478;2022-11-20T07:07:21;41.35;;;14.65;;
70414;SDS011;57837;52.064;113.478;2022-11-20T07:10:25;34.77;;;11.63;;
70414;SDS011;57837;52.064;113.478;2022-11-20T07:13:29;32.22;;;11.35;;
70414;SDS011;57837;52.064;113.478;2022-11-20T07:16:34;23.30;;;9.90;;
70414;SDS011;57837;52.064;113.478;2022-11-20T07:19:38;37.93;;;12.77;;
70414;SDS011;57837;52.064;113.478;2022-11-20T07:22:42;43.65;;;15.23;;
70414;SDS011;57837;52.064;113.478;2022-11-20T07:25:46;31.92;;;12.80;;
70414;SDS011;57837;52.064;113.478;2022-11-20T07:28:49;27.17;;;11.13;;
70414;SDS011;57837;52.064;113.478;2022-11-20T07:31:53;28.58;;;10.68;;
70414;SDS011;57837;52.064;113.478;2022-11-20T07:34:58;19.20;;;9.20;;
70414;SDS011;57837;52.064;113.478;2022-11-20T07:38:02;19.23;;;8.02;;
70414;SDS011;57837;52.064;113.478;2022-11-20T07:41:06;20.80;;;9.10;;
70414;SDS011;57837;52.064;113.478;2022-11-20T07:44:09;24.83;;;9.85;;
70414;SDS011;57837;52.064;113.478;2022-11-20T07:47:13;47.42;;;16.77;;
70414;SDS011;57837;52.064;113.478;2022-11-20T07:50:17;37.47;;;16.10;;
70414;SDS011;57837;52.064;113.478;2022-11-20T07:53:22;48.75;;;17.10;;
70414;SDS011;57837;52.064;113.478;2022-11-20T07:56:26;68.13;;;25.88;;
70414;SDS011;57837;52.064;113.478;2022-11-20T07:59:30;64.75;;;24.58;;
70414;SDS011;57837;52.064;113.478;2022-11-20T08:02:33;34.45;;;13.38;;
70414;SDS011;57837;52.064;113.478;2022-11-20T08:05:39;77.88;;;22.00;;
70414;SDS011;57837;52.064;113.478;2022-11-20T08:08:42;61.10;;;18.45;;
70414;SDS011;57837;52.064;113.478;2022-11-20T08:11:46;93.33;;;30.13;;
70414;SDS011;57837;52.064;113.478;2022-11-20T08:15:07;60.33;;;24.83;;
70414;SDS011;57837;52.064;113.478;2022-11-20T08:18:14;97.07;;;37.17;;
70414;SDS011;57837;52.064;113.478;2022-11-20T08:21:33;93.73;;;40.50;;
70414;SDS011;57837;52.064;113.478;2022-11-20T08:24:39;93.75;;;37.60;;
70414;SDS011;57837;52.064;113.478;2022-11-20T08:27:43;48.50;;;17.70;;
70414;SDS011;57837;52.064;113.478;2022-11-20T08:30:48;42.53;;;15.98;;
70414;SDS011;57837;52.064;113.478;2022-11-20T08:33:53;28.25;;;13.13;;
70414;SDS011;57837;52.064;113.478;2022-11-20T08:36:57;33.42;;;12.43;;
70414;SDS011;57837;52.064;113.478;2022-11-20T08:40:01;34.15;;;13.02;;
70414;SDS011;57837;52.064;113.478;2022-11-20T08:43:05;56.90;;;20.13;;
70414;SDS011;57837;52.064;113.478;2022-11-20T08:46:09;57.25;;;20.95;;
70414;SDS011;57837;52.064;113.478;2022-11-20T08:49:13;45.97;;;20.23;;
70414;SDS011;57837;52.064;113.478;2022-11-20T08:52:17;57.70;;;23.17;;
70414;SDS011;57837;52.064;113.478;2022-11-20T08:55:21;48.78;;;20.77;;
70414;SDS011;57837;52.064;113.478;2022-11-20T08:58:25;46.42;;;17.52;;
70414;SDS011;57837;52.064;113.478;2022-11-20T09:01:29;66.88;;;21.88;;
70414;SDS011;57837;52.064;113.478;2022-11-20T09:04:33;68.75;;;27.85;;
70414;SDS011;57837;52.064;113.478;2022-11-20T09:07:38;84.43;;;32.70;;
70414;SDS011;57837;52.064;113.478;2022-11-20T09:10:43;99.43;;;33.88;;
70414;SDS011;57837;52.064;113.478;2022-11-20T09:13:47;90.70;;;36.87;;
70414;SDS011;57837;52.064;113.478;2022-11-20T09:16:50;95.00;;;36.40;;
70414;SDS011;57837;52.064;113.478;2022-11-20T09:19:54;33.13;;;16.40;;
70414;SDS011;57837;52.064;113.478;2022-11-20T09:22:57;31.87;;;12.77;;
70414;SDS011;57837;52.064;113.478;2022-11-20T09:26:02;31.25;;;12.73;;
70414;SDS011;57837;52.064;113.478;2022-11-20T09:29:07;58.85;;;19.05;;
70414;SDS011;57837;52.064;113.478;2022-11-20T09:32:10;58.72;;;20.23;;
70414;SDS011;57837;52.064;113.478;2022-11-20T09:35:14;124.25;;;38.13;;
70414;SDS011;57837;52.064;113.478;2022-11-20T09:38:18;69.63;;;23.23;;
70414;SDS011;57837;52.064;113.478;2022-11-20T09:48:09;56.72;;;20.05;;
70414;SDS011;57837;52.064;113.478;2022-11-20T09:51:35;67.43;;;26.40;;
70414;SDS011;57837;52.064;113.478;2022-11-20T09:54:48;137.07;;;42.83;;
70414;SDS011;57837;52.064;113.478;2022-11-20T09:57:54;85.05;;;30.48;;
70414;SDS011;57837;52.064;113.478;2022-11-20T10:01:00;84.25;;;31.35;;
70414;SDS011;57837;52.064;113.478;2022-11-20T10:04:15;103.07;;;36.33;;
70414;SDS011;57837;52.064;113.478;2022-11-20T10:07:30;56.40;;;24.92;;
70414;SDS011;57837;52.064;113.478;2022-11-20T10:17:51;157.43;;;63.87;;
70414;SDS011;57837;52.064;113.478;2022-11-20T10:31:28;96.20;;;36.55;;
70414;SDS011;57837;52.064;113.478;2022-11-20T10:34:43;79.25;;;30.50;;
70414;SDS011;57837;52.064;113.478;2022-11-20T10:38:00;54.42;;;25.35;;
70414;SDS011;57837;52.064;113.478;2022-11-20T10:41:08;44.65;;;21.60;;
70414;SDS011;57837;52.064;113.478;2022-11-20T10:44:31;68.57;;;28.50;;
70414;SDS011;57837;52.064;113.478;2022-11-20T10:48:10;58.53;;;27.48;;
70414;SDS011;57837;52.064;113.478;2022-11-20T10:58:21;59.30;;;27.27;;
70414;SDS011;57837;52.064;113.478;2022-11-20T11:01:40;108.73;;;34.10;;
70414;SDS011;57837;52.064;113.478;2022-11-20T11:04:47;138.60;;;42.42;;
70414;SDS011;57837;52.064;113.478;2022-11-20T11:07:55;88.28;;;33.33;;
70414;SDS011;57837;52.064;113.478;2022-11-20T11:11:02;55.28;;;25.15;;
70414;SDS011;57837;52.064;113.478;2022-11-20T11:14:28;67.03;;;25.65;;
70414;SDS011;57837;52.064;113.478;2022-11-20T11:17:32;97.47;;;33.25;;
70414;SDS011;57837;52.064;113.478;2022-11-20T11:20:37;37.85;;;21.35;;
70414;SDS011;57837;52.064;113.478;2022-11-20T11:23:42;60.87;;;25.63;;
70414;SDS011;57837;52.064;113.478;2022-11-20T11:26:59;42.83;;;22.40;;
70414;SDS011;57837;52.064;113.478;2022-11-20T11:30:17;116.45;;;40.08;;
70414;SDS011;57837;52.064;113.478;2022-11-20T11:33:24;79.00;;;30.77;;
70414;SDS011;57837;52.064;113.478;2022-11-20T11:36:27;53.92;;;22.42;;
70414;SDS011;57837;52.064;113.478;2022-11-20T11:39:31;78.45;;;26.83;;
70414;SDS011;57837;52.064;113.478;2022-11-20T11:42:41;49.58;;;23.52;;
70414;SDS011;57837;52.064;113.478;2022-11-20T11:45:54;25.35;;;10.85;;
70414;SDS011;57837;52.064;113.478;2022-11-20T11:48:59;40.50;;;17.40;;
70414;SDS011;57837;52.064;113.478;2022-11-20T11:52:13;58.38;;;25.38;;
70414;SDS011;57837;52.064;113.478;2022-11-20T11:55:30;54.07;;;20.63;;
70414;SDS011;57837;52.064;113.478;2022-11-20T11:58:47;61.42;;;22.30;;
70414;SDS011;57837;52.064;113.478;2022-11-20T12:01:56;50.05;;;16.40;;
70414;SDS011;57837;52.064;113.478;2022-11-20T12:08:53;46.35;;;12.32;;
70414;SDS011;57837;52.064;113.478;2022-11-20T12:12:11;30.15;;;14.85;;
70414;SDS011;57837;52.064;113.478;2022-11-20T12:15:46;72.88;;;25.17;;
70414;SDS011;57837;52.064;113.478;2022-11-20T12:18:51;34.58;;;14.32;;
70414;SDS011;57837;52.064;113.478;2022-11-20T12:25:22;30.88;;;12.95;;
70414;SDS011;57837;52.064;113.478;2022-11-20T12:32:01;50.85;;;21.00;;
70414;SDS011;57837;52.064;113.478;2022-11-20T12:38:33;206.33;;;86.23;;
70414;SDS011;57837;52.064;113.478;2022-11-20T12:52:57;28.10;;;14.85;;
70414;SDS011;57837;52.064;113.478;2022-11-20T12:59:50;152.80;;;65.47;;
70414;SDS011;57837;52.064;113.478;2022-11-20T13:03:23;92.37;;;41.23;;
70414;SDS011;57837;52.064;113.478;2022-11-20T13:06:36;86.10;;;38.97;;
70414;SDS011;57837;52.064;113.478;2022-11-20T13:09:42;66.38;;;33.53;;
70414;SDS011;57837;52.064;113.478;2022-11-20T13:12:57;58.83;;;24.23;;
70414;SDS011;57837;52.064;113.478;2022-11-20T13:19:22;51.47;;;23.27;;
70414;SDS011;57837;52.064;113.478;2022-11-20T13:22:41;64.75;;;32.13;;
70414;SDS011;57837;52.064;113.478;2022-11-20T13:29:26;126.50;;;51.33;;
70414;SDS011;57837;52.064;113.478;2022-11-20T13:32:30;188.32;;;77.32;;
70414;SDS011;57837;52.064;113.478;2022-11-20T13:35:36;292.97;;;124.40;;
70414;SDS011;57837;52.064;113.478;2022-11-20T13:38:47;358.30;;;143.93;;
70414;SDS011;57837;52.064;113.478;2022-11-20T13:41:54;330.63;;;132.40;;
70414;SDS011;57837;52.064;113.478;2022-11-20T13:45:29;273.40;;;107.53;;
70414;SDS011;57837;52.064;113.478;2022-11-20T13:48:39;271.27;;;105.18;;
70414;SDS011;57837;52.064;113.478;2022-11-20T13:51:51;96.28;;;40.20;;
70414;SDS011;57837;52.064;113.478;2022-11-20T14:02:17;128.02;;;37.90;;
70414;SDS011;57837;52.064;113.478;2022-11-20T14:05:23;169.88;;;74.97;;
70414;SDS011;57837;52.064;113.478;2022-11-20T14:08:37;122.73;;;57.13;;
70414;SDS011;57837;52.064;113.478;2022-11-20T14:11:46;57.67;;;33.17;;
70414;SDS011;57837;52.064;113.478;2022-11-20T14:14:50;116.82;;;52.65;;
70414;SDS011;57837;52.064;113.478;2022-11-20T14:17:56;61.33;;;26.20;;
70414;SDS011;57837;52.064;113.478;2022-11-20T14:21:02;148.65;;;56.25;;
70414;SDS011;57837;52.064;113.478;2022-11-20T14:24:07;124.05;;;51.53;;
70414;SDS011;57837;52.064;113.478;2022-11-20T14:27:16;104.78;;;45.63;;
70414;SDS011;57837;52.064;113.478;2022-11-20T14:30:27;81.65;;;39.08;;
70414;SDS011;57837;52.064;113.478;2022-11-20T14:33:52;80.28;;;41.22;;
70414;SDS011;57837;52.064;113.478;2022-11-20T14:36:58;128.55;;;47.60;;
70414;SDS011;57837;52.064;113.478;2022-11-20T14:40:05;131.23;;;64.00;;
70414;SDS011;57837;52.064;113.478;2022-11-20T14:43:25;88.43;;;49.47;;
70414;SDS011;57837;52.064;113.478;2022-11-20T14:46:29;234.68;;;104.20;;
70414;SDS011;57837;52.064;113.478;2022-11-20T14:49:34;124.73;;;61.10;;
70414;SDS011;57837;52.064;113.478;2022-11-20T14:52:39;203.35;;;88.70;;
70414;SDS011;57837;52.064;113.478;2022-11-20T14:56:00;113.20;;;48.85;;
70414;SDS011;57837;52.064;113.478;2022-11-20T14:59:04;105.03;;;42.35;;
70414;SDS011;57837;52.064;113.478;2022-11-20T15:02:09;157.20;;;68.63;;
70414;SDS011;57837;52.064;113.478;2022-11-20T15:05:14;109.50;;;52.05;;
70414;SDS011;57837;52.064;113.478;2022-11-20T15:08:19;87.65;;;44.20;;
70414;SDS011;57837;52.064;113.478;2022-11-20T15:11:30;93.27;;;45.87;;
70414;SDS011;57837;52.064;113.478;2022-11-20T15:14:36;87.30;;;39.60;;
70414;SDS011;57837;52.064;113.478;2022-11-20T15:17:40;172.13;;;81.53;;
70414;SDS011;57837;52.064;113.478;2022-11-20T15:20:44;97.83;;;47.87;;
70414;SDS011;57837;52.064;113.478;2022-11-20T15:23:48;119.00;;;57.15;;
70414;SDS011;57837;52.064;113.478;2022-11-20T15:26:53;127.78;;;55.30;;
70414;SDS011;57837;52.064;113.478;2022-11-20T15:29:56;124.07;;;55.90;;
70414;SDS011;57837;52.064;113.478;2022-11-20T15:33:01;106.63;;;58.65;;
70414;SDS011;57837;52.064;113.478;2022-11-20T15:36:04;138.07;;;65.38;;
70414;SDS011;57837;52.064;113.478;2022-11-20T15:39:08;131.88;;;63.40;;
70414;SDS011;57837;52.064;113.478;2022-11-20T15:42:12;179.03;;;81.07;;
70414;SDS011;57837;52.064;113.478;2022-11-20T15:45:16;342.95;;;136.88;;
70414;SDS011;57837;52.064;113.478;2022-11-20T15:48:20;253.00;;;99.18;;
70414;SDS011;57837;52.064;113.478;2022-11-20T15:51:29;249.03;;;92.33;;
70414;SDS011;57837;52.064;113.478;2022-11-20T15:54:34;120.97;;;56.42;;
70414;SDS011;57837;52.064;113.478;2022-11-20T15:57:37;171.77;;;86.55;;
70414;SDS011;57837;52.064;113.478;2022-11-20T16:00:41;216.32;;;94.53;;
70414;SDS011;57837;52.064;113.478;2022-11-20T16:03:44;125.90;;;57.28;;
70414;SDS011;57837;52.064;113.478;2022-11-20T16:06:48;207.38;;;73.35;;
70414;SDS011;57837;52.064;113.478;2022-11-20T16:09:52;123.03;;;52.83;;
70414;SDS011;57837;52.064;113.478;2022-11-20T16:12:57;171.30;;;67.50;;
70414;SDS011;57837;52.064;113.478;2022-11-20T16:16:38;151.20;;;79.95;;
70414;SDS011;57837;52.064;113.478;2022-11-20T16:19:44;93.50;;;45.90;;
70414;SDS011;57837;52.064;113.478;2022-11-20T16:22:47;87.50;;;37.23;;
70414;SDS011;57837;52.064;113.478;2022-11-20T16:25:51;72.78;;;31.80;;
70414;SDS011;57837;52.064;113.478;2022-11-20T16:28:54;82.78;;;43.78;;
70414;SDS011;57837;52.064;113.478;2022-11-20T16:31:58;88.68;;;37.65;;
70414;SDS011;57837;52.064;113.478;2022-11-20T16:35:01;60.78;;;39.75;;
70414;SDS011;57837;52.064;113.478;2022-11-20T16:38:05;68.07;;;33.28;;
70414;SDS011;57837;52.064;113.478;2022-11-20T16:41:09;65.97;;;32.80;;
70414;SDS011;57837;52.064;113.478;2022-11-20T16:44:16;55.07;;;39.03;;
70414;SDS011;57837;52.064;113.478;2022-11-20T16:47:19;66.78;;;27.65;;
70414;SDS011;57837;52.064;113.478;2022-11-20T16:50:23;71.50;;;36.78;;
70414;SDS011;57837;52.064;113.478;2022-11-20T16:53:27;89.27;;;44.63;;
70414;SDS011;57837;52.064;113.478;2022-11-20T16:56:31;54.03;;;35.17;;
70414;SDS011;57837;52.064;113.478;2022-11-20T16:59:34;107.45;;;61.00;;
70414;SDS011;57837;52.064;113.478;2022-11-20T17:02:37;112.70;;;49.10;;
70414;SDS011;57837;52.064;113.478;2022-11-20T17:05:41;96.13;;;49.20;;
70414;SDS011;57837;52.064;113.478;2022-11-20T17:08:44;80.65;;;37.13;;
70414;SDS011;57837;52.064;113.478;2022-11-20T17:11:48;84.07;;;41.58;;
70414;SDS011;57837;52.064;113.478;2022-11-20T17:14:52;158.37;;;54.60;;
70414;SDS011;57837;52.064;113.478;2022-11-20T17:17:56;170.85;;;68.25;;
70414;SDS011;57837;52.064;113.478;2022-11-20T17:20:59;153.45;;;62.35;;
70414;SDS011;57837;52.064;113.478;2022-11-20T17:24:07;99.33;;;47.20;;
70414;SDS011;57837;52.064;113.478;2022-11-20T17:27:13;124.60;;;43.38;;
70414;SDS011;57837;52.064;113.478;2022-11-20T17:30:16;99.30;;;35.00;;
70414;SDS011;57837;52.064;113.478;2022-11-20T17:33:19;56.35;;;28.35;;
70414;SDS011;57837;52.064;113.478;2022-11-20T17:36:22;79.32;;;28.45;;
70414;SDS011;57837;52.064;113.478;2022-11-20T17:39:25;77.35;;;32.83;;
70414;SDS011;57837;52.064;113.478;2022-11-20T17:42:29;51.63;;;25.30;;
70414;SDS011;57837;52.064;113.478;2022-11-20T17:45:38;156.37;;;65.20;;
70414;SDS011;57837;52.064;113.478;2022-11-20T17:48:41;47.35;;;24.58;;
70414;SDS011;57837;52.064;113.478;2022-11-20T17:51:45;95.88;;;33.88;;
70414;SDS011;57837;52.064;113.478;2022-11-20T17:54:49;82.00;;;35.87;;
70414;SDS011;57837;52.064;113.478;2022-11-20T17:57:57;39.28;;;28.98;;
70414;SDS011;57837;52.064;113.478;2022-11-20T18:01:05;110.03;;;36.97;;
70414;SDS011;57837;52.064;113.478;2022-11-20T18:04:10;75.20;;;37.53;;
70414;SDS011;57837;52.064;113.478;2022-11-20T18:07:14;94.40;;;38.60;;
70414;SDS011;57837;52.064;113.478;2022-11-20T18:10:17;96.72;;;47.55;;
70414;SDS011;57837;52.064;113.478;2022-11-20T18:13:21;80.90;;;41.78;;
70414;SDS011;57837;52.064;113.478;2022-11-20T18:16:50;64.20;;;33.47;;
70414;SDS011;57837;52.064;113.478;2022-11-20T18:19:55;64.82;;;32.88;;
70414;SDS011;57837;52.064;113.478;2022-11-20T18:23:19;74.70;;;40.92;;
70414;SDS011;57837;52.064;113.478;2022-11-20T18:26:24;62.10;;;28.80;;
70414;SDS011;57837;52.064;113.478;2022-11-20T18:29:29;58.50;;;34.90;;
70414;SDS011;57837;52.064;113.478;2022-11-20T18:32:33;42.70;;;21.95;;
70414;SDS011;57837;52.064;113.478;2022-11-20T18:35:37;93.32;;;35.88;;
70414;SDS011;57837;52.064;113.478;2022-11-20T18:38:44;92.53;;;40.67;;
70414;SDS011;57837;52.064;113.478;2022-11-20T18:41:50;46.38;;;26.67;;
70414;SDS011;57837;52.064;113.478;2022-11-20T18:45:13;42.33;;;25.73;;
70414;SDS011;57837;52.064;113.478;2022-11-20T18:48:17;63.60;;;35.23;;
70414;SDS011;57837;52.064;113.478;2022-11-20T18:51:21;94.43;;;39.40;;
70414;SDS011;57837;52.064;113.478;2022-11-20T18:54:25;65.80;;;28.95;;